Time;durP1;ratioP1;P1;durP2;ratioP2;P2;SDS_P1;SDS_P2;PMS_P1;PMS_P2;Temp;Humidity;BMP_temperature;BMP_pressure;BME280_temperature;BME280_humidity;BME280_pressure;Samples;Min_cycle;Max_cycle;Signal;HPM_P1;HPM_P2
2024/01/10 02:01:56;;;;;;;5.37;2.60;;;-3.60;1.00;;;;;;5927475;23;20167;31
2024/01/10 02:04:23;;;;;;;5.70;2.90;;;-3.60;1.00;;;;;;4805112;29;33919;-80
2024/01/10 02:06:50;;;;;;;6.43;2.77;;;-3.60;1.00;;;;;;4797305;29;36429;-80
2024/01/10 02:09:16;;;;;;;4.07;2.70;;;-3.60;1.00;;;;;;4803025;29;36549;-81
2024/01/10 02:11:48;;;;;;;7.43;3.03;;;-3.60;99.90;;;;;;4800180;29;37660;-82
2024/01/10 02:14:16;;;;;;;4.30;2.72;;;-3.60;1.00;;;;;;4814933;29;38435;-82
2024/01/10 02:16:42;;;;;;;5.63;3.00;;;-3.60;1.00;;;;;;4816439;29;39044;-82
2024/01/10 02:19:22;;;;;;;8.23;3.10;;;-3.60;99.90;;;;;;4812014;29;35856;-82
2024/01/10 02:21:48;;;;;;;7.07;3.50;;;-3.60;94.70;;;;;;4797249;29;38497;-82
2024/01/10 02:24:15;;;;;;;6.47;3.03;;;-3.60;99.90;;;;;;4796120;29;39217;-81
2024/01/10 02:26:42;;;;;;;5.47;3.27;;;-3.60;99.90;;;;;;4817041;29;39554;-82
2024/01/10 02:29:08;;;;;;;5.53;3.30;;;-3.60;99.90;;;;;;4799225;29;36184;-81
2024/01/10 02:31:41;;;;;;;5.37;2.73;;;-3.60;1.00;;;;;;4813509;29;38200;-81
2024/01/10 02:34:07;;;;;;;4.77;2.67;;;-3.60;1.00;;;;;;4800551;29;38908;-82
2024/01/10 02:36:34;;;;;;;5.57;3.07;;;-3.60;99.90;;;;;;4814305;29;36907;-82
2024/01/10 02:39:01;;;;;;;5.27;3.23;;;-3.70;99.90;;;;;;4814296;29;37180;-80
2024/01/10 02:41:27;;;;;;;5.97;3.60;;;-3.70;99.90;;;;;;4816988;29;47358;-79
2024/01/10 02:43:58;;;;;;;5.47;2.93;;;-3.70;99.90;;;;;;4811055;29;37864;-80
2024/01/10 02:46:27;;;;;;;7.37;3.03;;;-3.70;1.00;;;;;;4797547;29;36496;-80
2024/01/10 02:48:55;;;;;;;4.87;2.77;;;-3.70;99.90;;;;;;4811024;29;36138;-81
2024/01/10 02:51:22;;;;;;;4.90;3.07;;;-3.60;99.90;;;;;;4815873;29;39104;-80
2024/01/10 02:53:50;;;;;;;6.47;3.43;;;-3.70;99.90;;;;;;4816406;29;38873;-81
2024/01/10 02:56:16;;;;;;;5.93;3.27;;;-3.60;1.00;;;;;;4812668;29;38468;-81
2024/01/10 02:58:43;;;;;;;3.63;2.73;;;-3.60;1.00;;;;;;4802111;29;36008;-80
2024/01/10 03:01:15;;;;;;;5.17;2.90;;;-3.70;1.00;;;;;;4819529;29;40187;-81
2024/01/10 03:03:42;;;;;;;6.20;3.38;;;-3.70;1.00;;;;;;4819996;29;38652;-81
2024/01/10 03:06:08;;;;;;;6.07;3.33;;;-3.70;1.00;;;;;;4833359;29;38690;-80
2024/01/10 03:08:34;;;;;;;7.40;3.10;;;-3.70;1.00;;;;;;4811902;29;36879;-81
2024/01/10 03:11:03;;;;;;;5.53;3.20;;;-3.70;1.00;;;;;;4812703;29;37836;-80
2024/01/10 03:13:29;;;;;;;5.63;3.00;;;-3.70;1.00;;;;;;4812385;29;49481;-82
2024/01/10 03:15:55;;;;;;;5.07;2.90;;;-3.70;1.00;;;;;;4813810;29;38447;-79
2024/01/10 03:18:22;;;;;;;5.83;3.30;;;-3.70;1.00;;;;;;4812295;29;37635;-81
2024/01/10 03:20:48;;;;;;;5.63;3.27;;;-3.70;1.00;;;;;;4791899;29;38378;-80
2024/01/10 03:23:15;;;;;;;7.83;4.10;;;-3.70;1.00;;;;;;4819371;29;38751;-82
2024/01/10 03:25:41;;;;;;;4.23;2.70;;;-3.70;1.00;;;;;;4812387;29;38074;-79
2024/01/10 03:28:17;;;;;;;6.03;3.13;;;-3.70;1.00;;;;;;4804259;29;35814;-81
2024/01/10 03:30:44;;;;;;;8.77;3.13;;;-3.70;1.00;;;;;;4813980;29;39570;-80
2024/01/10 03:33:20;;;;;;;9.53;3.90;;;-3.80;1.00;;;;;;4804420;29;37178;-80
2024/01/10 03:35:47;;;;;;;7.70;3.73;;;-3.80;1.00;;;;;;4797692;29;36709;-80
2024/01/10 03:38:16;;;;;;;14.03;4.20;;;-3.70;1.00;;;;;;4807307;29;37633;-80
2024/01/10 03:40:46;;;;;;;4.40;2.50;;;-3.70;1.00;;;;;;4813182;29;39641;-80
2024/01/10 03:43:22;;;;;;;6.17;3.20;;;-3.70;1.00;;;;;;4800689;29;38553;-81
2024/01/10 03:45:49;;;;;;;5.93;2.93;;;-3.80;1.00;;;;;;4809238;29;38709;-81
2024/01/10 03:48:15;;;;;;;6.80;3.30;;;-3.70;1.00;;;;;;4799926;29;36301;-82
2024/01/10 03:50:41;;;;;;;6.20;3.30;;;-3.80;35.10;;;;;;4800284;29;37832;-80
2024/01/10 03:53:08;;;;;;;8.07;3.50;;;-3.80;67.20;;;;;;4810292;29;37639;-79
2024/01/10 03:55:34;;;;;;;7.60;2.93;;;-3.80;36.00;;;;;;4800996;29;37586;-80
2024/01/10 03:58:00;;;;;;;5.50;3.10;;;-3.80;99.90;;;;;;4810954;29;36695;-80
2024/01/10 04:00:28;;;;;;;6.33;3.50;;;-3.80;99.90;;;;;;4810770;29;40069;-81
2024/01/10 04:02:59;;;;;;;6.23;3.60;;;-3.80;99.90;;;;;;4805071;29;39178;-80
2024/01/10 04:05:25;;;;;;;5.80;3.70;;;-3.90;99.90;;;;;;4812777;29;39751;-81
2024/01/10 04:07:56;;;;;;;4.83;3.10;;;-3.90;99.90;;;;;;4824545;29;37622;-81
2024/01/10 04:10:23;;;;;;;5.10;3.33;;;-3.90;99.90;;;;;;4796896;29;39898;-80
2024/01/10 04:12:49;;;;;;;8.30;3.93;;;-3.90;99.90;;;;;;4811787;29;38473;-81
2024/01/10 04:15:17;;;;;;;6.07;2.93;;;-3.90;99.90;;;;;;4792715;29;40023;-81
2024/01/10 04:17:44;;;;;;;10.33;3.67;;;-3.90;99.90;;;;;;4804392;29;35999;-80
2024/01/10 04:20:10;;;;;;;7.40;3.67;;;-3.80;99.90;;;;;;4796607;29;37493;-80
2024/01/10 04:22:37;;;;;;;6.63;3.47;;;-3.80;99.90;;;;;;4799893;29;37361;-81
2024/01/10 04:25:06;;;;;;;7.60;4.20;;;-3.90;99.90;;;;;;4811673;29;38658;-80
2024/01/10 04:27:33;;;;;;;4.67;3.10;;;-3.90;99.90;;;;;;4817579;29;47845;-80
2024/01/10 04:30:00;;;;;;;6.73;3.63;;;-3.90;99.90;;;;;;4799087;29;37874;-80
2024/01/10 04:32:27;;;;;;;5.07;3.30;;;-3.90;1.00;;;;;;4815543;29;38481;-80
2024/01/10 04:34:54;;;;;;;6.17;3.30;;;-3.90;1.00;;;;;;4800025;29;36930;-80
2024/01/10 04:37:20;;;;;;;6.67;3.70;;;-3.90;1.00;;;;;;4817801;29;37332;-81
2024/01/10 04:40:24;;;;;;;5.63;3.63;;;-3.90;1.00;;;;;;4800448;29;38348;-81
2024/01/10 04:42:50;;;;;;;;;;;-3.90;1.00;;;;;;4797995;29;48708;-81
2024/01/10 04:45:26;;;;;;;5.50;3.43;;;-3.90;1.00;;;;;;4788150;29;40162;-80
2024/01/10 04:47:54;;;;;;;12.77;4.43;;;-4.00;1.00;;;;;;4806943;29;38162;-80
2024/01/10 04:50:22;;;;;;;7.10;4.00;;;-4.00;1.00;;;;;;4796806;29;41042;-80
2024/01/10 04:52:50;;;;;;;7.93;3.73;;;-4.10;1.00;;;;;;4797855;29;38308;-80
2024/01/10 04:55:16;;;;;;;6.77;3.53;;;-4.10;1.00;;;;;;4794242;29;38143;-80
2024/01/10 04:57:42;;;;;;;8.60;3.73;;;-4.10;1.00;;;;;;4813146;29;38019;-80
2024/01/10 05:00:10;;;;;;;5.67;4.23;;;-4.10;1.00;;;;;;4800828;29;38107;-80
2024/01/10 05:02:36;;;;;;;7.10;3.87;;;-4.10;1.00;;;;;;4817429;29;38159;-80
2024/01/10 05:05:04;;;;;;;6.67;3.57;;;-4.10;1.00;;;;;;4815277;29;38165;-80
2024/01/10 05:07:30;;;;;;;7.00;3.77;;;-4.10;1.00;;;;;;4797297;29;46976;-79
2024/01/10 05:09:56;;;;;;;6.47;3.60;;;-4.10;1.00;;;;;;4813594;29;39764;-79
2024/01/10 05:12:23;;;;;;;6.30;3.97;;;-4.10;1.00;;;;;;4805316;29;37444;-80
2024/01/10 05:14:50;;;;;;;6.63;3.67;;;-4.00;1.00;;;;;;4818727;29;38152;-80
2024/01/10 05:17:22;;;;;;;6.10;3.77;;;-4.10;1.00;;;;;;4777136;29;39004;-80
2024/01/10 05:19:56;;;;;;;9.15;4.78;;;-4.00;1.00;;;;;;4815252;29;39206;-79
2024/01/10 05:22:39;;;;;;;7.47;3.97;;;-4.10;1.00;;;;;;4763171;29;37597;-80
2024/01/10 05:25:35;;;;;;;;;;;;;;;;;;;;;
2024/01/10 05:28:20;;;;;;;8.30;4.20;;;-4.10;1.00;;;;;;4759760;29;48993;-79
2024/01/10 05:30:53;;;;;;;9.03;4.37;;;-4.10;1.00;;;;;;4795969;29;39515;-80
2024/01/10 05:33:20;;;;;;;8.97;4.07;;;-4.10;1.00;;;;;;4788385;29;40725;-80
2024/01/10 05:35:47;;;;;;;6.20;4.00;;;-4.10;1.00;;;;;;4792005;29;38263;-79
2024/01/10 05:38:13;;;;;;;9.20;4.50;;;-4.10;1.00;;;;;;4798755;29;38251;-79
2024/01/10 05:40:43;;;;;;;8.33;4.00;;;-4.10;1.00;;;;;;4791938;29;38271;-78
2024/01/10 05:43:10;;;;;;;8.20;4.53;;;-4.10;1.00;;;;;;4801826;29;37608;-81
2024/01/10 05:45:36;;;;;;;6.43;3.97;;;-4.10;1.00;;;;;;4790510;29;38609;-80
2024/01/10 05:48:36;;;;;;;8.70;4.20;;;-4.10;1.00;;;;;;4799385;29;38080;-79
2024/01/10 05:51:03;;;;;;;11.23;3.97;;;-4.10;1.00;;;;;;4775446;29;40033;-79
2024/01/10 05:53:29;;;;;;;8.10;4.60;;;-4.10;1.00;;;;;;4780794;29;37577;-78
2024/01/10 05:55:55;;;;;;;6.93;4.13;;;-4.10;1.00;;;;;;4795824;29;38588;-79
2024/01/10 05:58:21;;;;;;;7.93;4.23;;;-4.10;1.00;;;;;;4773682;29;36044;-79
2024/01/10 06:00:47;;;;;;;6.17;3.70;;;-4.10;1.00;;;;;;4804133;29;38473;-79
2024/01/10 06:03:14;;;;;;;9.00;4.40;;;-4.10;1.00;;;;;;4818115;29;38300;-80
2024/01/10 06:05:40;;;;;;;5.97;3.50;;;-4.20;1.00;;;;;;4817795;29;38000;-80
2024/01/10 06:08:06;;;;;;;6.07;4.07;;;-4.20;1.00;;;;;;4835347;29;37423;-80
2024/01/10 06:10:32;;;;;;;6.80;4.03;;;-4.20;1.00;;;;;;4830116;29;39346;-79
2024/01/10 06:12:59;;;;;;;8.40;4.47;;;-4.20;1.00;;;;;;4816144;29;39840;-80
2024/01/10 06:15:27;;;;;;;7.73;4.30;;;-4.20;1.00;;;;;;4810377;29;38176;-80
2024/01/10 06:17:54;;;;;;;6.63;3.77;;;-4.10;1.00;;;;;;4825409;29;38158;-80
2024/01/10 06:20:20;;;;;;;7.70;4.47;;;-4.20;1.00;;;;;;4820561;29;39370;-79
2024/01/10 06:22:47;;;;;;;7.33;4.03;;;-4.20;1.00;;;;;;4795404;29;37182;-79
2024/01/10 06:25:14;;;;;;;8.73;4.17;;;-4.20;1.00;;;;;;4786947;29;38659;-79
2024/01/10 06:27:40;;;;;;;10.60;5.17;;;-4.20;1.00;;;;;;4799084;29;35840;-78
2024/01/10 06:30:07;;;;;;;8.70;4.10;;;-4.20;1.00;;;;;;4793054;29;37813;-78
2024/01/10 06:32:33;;;;;;;8.23;4.67;;;-4.20;1.00;;;;;;4805005;29;48099;-77
2024/01/10 06:35:02;;;;;;;10.33;4.97;;;-4.20;1.00;;;;;;4807620;29;38006;-79
2024/01/10 06:37:32;;;;;;;7.90;4.53;;;-4.20;1.00;;;;;;4800572;29;36139;-80
2024/01/10 06:43:30;;;;;;;8.97;4.13;;;-4.30;1.00;;;;;;4192561;27;20055;-80
2024/01/10 06:46:12;;;;;;;9.50;4.70;;;-4.30;1.00;;;;;;4859781;29;39831;-81
2024/01/10 06:48:47;;;;;;;8.70;4.53;;;-4.30;1.00;;;;;;4848533;29;49048;-80
2024/01/10 06:51:26;;;;;;;7.80;4.43;;;-4.30;1.00;;;;;;4841492;29;40153;-81
2024/01/10 06:54:06;;;;;;;7.47;4.03;;;-4.30;1.00;;;;;;4835443;29;38849;-82
2024/01/10 06:56:46;;;;;;;7.83;4.33;;;-4.30;1.00;;;;;;4833063;29;50277;-81
2024/01/10 06:59:36;;;;;;;9.50;4.60;;;-4.40;1.00;;;;;;5660056;23;20053;-81
2024/01/10 07:02:06;;;;;;;8.27;4.67;;;-4.40;1.00;;;;;;4844593;29;37948;-80
2024/01/10 07:04:43;;;;;;;9.68;5.30;;;-4.40;1.00;;;;;;4840250;29;38346;-80
2024/01/10 07:07:13;;;;;;;7.73;4.73;;;-4.40;1.00;;;;;;4846052;29;37217;-79
2024/01/10 07:09:50;;;;;;;9.10;4.77;;;-4.40;1.00;;;;;;4849108;29;38489;-82
2024/01/10 07:12:58;;;;;;;10.67;4.90;;;-4.40;1.00;;;;;;4851774;29;39443;-79
2024/01/10 07:16:10;;;;;;;9.60;4.83;;;-4.40;1.00;;;;;;4849310;29;48867;-80
2024/01/10 07:18:51;;;;;;;7.53;4.73;;;-4.40;1.00;;;;;;4818647;29;49017;-80
2024/01/10 07:21:25;;;;;;;6.60;4.13;;;-4.30;1.00;;;;;;4841059;29;38539;-81
2024/01/10 07:24:34;;;;;;;9.20;5.30;;;-4.30;1.00;;;;;;4853901;29;39601;-80
2024/01/10 07:27:07;;;;;;;6.43;4.10;;;-4.30;1.00;;;;;;4841063;29;39736;-80
2024/01/10 07:29:46;;;;;;;9.40;4.97;;;-4.40;1.00;;;;;;4850260;29;49945;-80
2024/01/10 07:35:30;;;;;;;8.57;4.57;;;-4.40;1.00;;;;;;4944196;23;20082;-80
2024/01/10 07:38:03;;;;;;;8.77;5.40;;;-4.40;1.00;;;;;;4858579;29;48606;-81
2024/01/10 07:40:59;;;;;;;11.77;5.37;;;-4.40;1.00;;;;;;4858652;29;49004;-82
2024/01/10 07:43:30;;;;;;;7.37;5.00;;;-4.40;1.00;;;;;;4851579;29;36461;-81
2024/01/10 07:46:01;;;;;;;8.17;5.10;;;-4.40;1.00;;;;;;4857894;29;40367;-80
2024/01/10 07:58:59;;;;;;;8.23;5.03;;;-4.50;1.00;;;;;;4845503;29;20039;-83
2024/01/10 08:01:39;;;;;;;9.23;5.07;;;-4.40;1.00;;;;;;4817253;29;38160;-81
2024/01/10 08:04:13;;;;;;;12.03;5.43;;;-4.50;1.00;;;;;;4810351;29;36810;-80
2024/01/10 08:06:55;;;;;;;10.10;5.37;;;-4.40;1.00;;;;;;4831711;29;39361;-81
2024/01/10 08:10:05;;;;;;;10.03;5.07;;;-4.40;1.00;;;;;;4826050;29;39030;-80
2024/01/10 08:12:42;;;;;;;12.23;5.27;;;-4.40;1.00;;;;;;4815527;29;50271;-81
2024/01/10 08:18:11;;;;;;;8.63;5.60;;;-4.40;1.00;;;;;;5165625;23;20037;-80
2024/01/10 08:21:40;;;;;;;13.20;5.97;;;-4.50;1.00;;;;;;4780771;29;50370;-80
2024/01/10 08:24:47;;;;;;;9.88;5.28;;;-4.50;1.00;;;;;;4859160;29;49632;-81
2024/01/10 08:27:31;;;;;;;9.50;4.85;;;-4.40;1.00;;;;;;4858266;29;38487;-79
2024/01/10 08:30:23;;;;;;;9.40;4.77;;;-4.30;1.00;;;;;;4839441;29;39066;-81
2024/01/10 08:33:59;;;;;;;10.90;5.07;;;-4.20;1.00;;;;;;4871822;29;49562;-82
2024/01/10 08:39:24;;;;;;;16.73;4.83;;;-4.10;1.00;;;;;;5797839;23;20025;-81
2024/01/10 08:52:21;;;;;;;12.50;5.30;;;-3.90;99.90;;;;;;5571762;23;20038;-81
2024/01/10 08:55:22;;;;;;;10.45;4.78;;;-3.90;99.90;;;;;;4856372;29;39266;-80
2024/01/10 08:58:16;;;;;;;10.33;5.63;;;-3.80;99.90;;;;;;4867118;29;49684;-80
2024/01/10 09:09:05;;;;;;;11.53;5.83;;;-3.60;1.00;;;;;;4904223;23;20317;-80
2024/01/10 09:17:08;;;;;;;10.73;4.85;;;-3.50;1.00;;;;;;4515795;27;20065;-81
2024/01/10 09:20:03;;;;;;;8.87;5.13;;;-3.50;1.00;;;;;;4876037;29;39656;-81
2024/01/10 09:23:15;;;;;;;10.73;5.60;;;-3.40;99.90;;;;;;4831667;29;37632;-80
2024/01/10 09:53:09;;;;;;;;;;;;;;;;;;;;;
2024/01/10 10:11:20;;;;;;;12.97;6.60;;;-2.70;99.90;;;;;;5827124;23;22431;-80
2024/01/10 10:14:04;;;;;;;11.00;5.87;;;-2.70;99.90;;;;;;4847231;29;35886;-81
2024/01/10 10:20:04;;;;;;;12.23;6.57;;;-2.60;1.00;;;;;;4949050;23;41085;-81
2024/01/10 10:22:32;;;;;;;9.90;6.13;;;-2.50;99.90;;;;;;4844510;29;45603;-80
2024/01/10 10:25:09;;;;;;;9.33;5.37;;;-2.40;99.90;;;;;;4846552;29;20581;-81
2024/01/10 10:27:37;;;;;;;8.97;5.40;;;-2.40;1.00;;;;;;4809146;29;49474;-81
2024/01/10 10:30:09;;;;;;;13.17;7.03;;;-2.30;99.90;;;;;;4836545;29;39130;-80
2024/01/10 10:32:35;;;;;;;14.13;7.37;;;-2.30;99.90;;;;;;4846141;29;47688;-80
2024/01/10 10:35:03;;;;;;;12.17;7.00;;;-2.20;1.00;;;;;;4820290;29;38600;-80
2024/01/10 10:37:30;;;;;;;13.93;6.20;;;-2.20;1.00;;;;;;4838822;29;37861;-80
2024/01/10 10:39:56;;;;;;;11.20;5.90;;;-2.20;1.00;;;;;;4841113;29;40140;-78
2024/01/10 10:42:25;;;;;;;11.37;5.60;;;-2.10;1.00;;;;;;4824639;29;39689;-81
2024/01/10 10:45:01;;;;;;;12.73;7.23;;;-2.10;99.90;;;;;;4841874;29;38112;-80
2024/01/10 10:47:32;;;;;;;11.10;6.10;;;-2.00;99.90;;;;;;4808562;29;37282;-80
2024/01/10 10:50:08;;;;;;;11.93;6.28;;;-2.00;98.60;;;;;;4816698;29;40130;-80
2024/01/10 10:55:08;;;;;;;13.98;7.70;;;-1.90;1.00;;;;;;4840485;29;20065;-80
2024/01/10 10:58:12;;;;;;;;;;;;;;;;;;;;;
2024/01/10 11:01:27;;;;;;;14.67;6.23;;;-1.90;1.00;;;;;;4877421;29;38324;-80
2024/01/10 11:14:00;;;;;;;14.50;6.97;;;-1.60;99.90;;;;;;5284386;23;20074;-78
2024/01/10 11:16:40;;;;;;;9.97;5.70;;;-1.50;99.90;;;;;;4818956;29;37111;-79
2024/01/10 11:19:37;;;;;;;13.73;7.40;;;-1.50;1.00;;;;;;4822118;29;37697;-79
2024/01/10 11:22:31;;;;;;;15.07;7.00;;;-1.40;1.00;;;;;;4826755;29;37941;-80
2024/01/10 11:28:37;;;;;;;13.67;6.37;;;-1.30;99.90;;;;;;4830762;29;40184;-81
2024/01/10 11:32:06;;;;;;;;;;;;;;;;;;;;;
2024/01/10 11:35:18;;;;;;;14.63;7.57;;;-1.10;1.00;;;;;;4760542;29;50362;-80
2024/01/10 11:47:22;;;;;;;10.83;6.27;;;-1.00;1.00;;;;;;5422172;24;20038;-80
2024/01/10 11:52:38;;;;;;;12.97;7.10;;;-0.90;1.00;;;;;;5157599;23;20058;-80
2024/01/10 11:55:08;;;;;;;12.67;6.93;;;-0.80;1.00;;;;;;4835401;29;40362;-79
2024/01/10 12:03:13;;;;;;;12.77;6.67;;;-0.60;1.00;;;;;;4001590;27;20131;-79
2024/01/10 12:06:01;;;;;;;18.20;8.30;;;-0.50;1.00;;;;;;4864282;29;49234;-79
2024/01/10 12:08:39;;;;;;;9.50;5.47;;;-0.50;99.90;;;;;;4861716;29;49405;-79
2024/01/10 12:11:23;;;;;;;15.10;7.53;;;-0.40;99.90;;;;;;4872843;29;38486;-80
2024/01/10 12:13:56;;;;;;;12.43;7.33;;;-0.40;99.90;;;;;;4854494;29;39265;-80
2024/01/10 12:16:48;;;;;;;14.80;7.20;;;-0.30;99.90;;;;;;4877580;29;50030;-79
2024/01/10 12:19:39;;;;;;;14.23;7.73;;;-0.20;99.90;;;;;;4851162;29;37279;-79
2024/01/10 12:22:08;;;;;;;12.00;6.83;;;-0.10;99.90;;;;;;4849532;29;40281;-80
2024/01/10 12:24:46;;;;;;;12.20;7.30;;;0.00;99.90;;;;;;4852516;29;38644;-80
2024/01/10 12:27:20;;;;;;;12.17;7.23;;;-0.10;92.50;;;;;;4854433;29;36980;-80
2024/01/10 12:35:03;;;;;;;13.27;6.77;;;0.00;1.00;;;;;;5703903;23;20065;-79
2024/01/10 12:43:12;;;;;;;12.30;7.03;;;0.10;1.00;;;;;;1437898;27;20160;-79
2024/01/10 12:45:57;;;;;;;15.03;7.53;;;0.20;1.00;;;;;;4811126;29;37682;-80
2024/01/10 12:48:37;;;;;;;10.93;6.40;;;0.20;1.00;;;;;;4832393;29;39621;-80
2024/01/10 12:51:07;;;;;;;15.87;7.13;;;0.20;1.00;;;;;;4804880;29;36658;-79
2024/01/10 12:53:44;;;;;;;12.17;6.70;;;0.20;1.00;;;;;;4831184;29;40067;-80
2024/01/10 12:56:36;;;;;;;;;;;;;;;;;;;;;
2024/01/10 12:59:51;;;;;;;12.17;6.63;;;0.30;1.00;;;;;;4844160;29;41701;-78
2024/01/10 13:03:05;;;;;;;11.97;7.03;;;0.30;1.00;;;;;;4817745;29;37829;-80
2024/01/10 13:06:21;;;;;;;12.77;7.17;;;0.30;1.00;;;;;;4857174;29;39500;-80
2024/01/10 13:12:39;;;;;;;12.93;7.97;;;0.40;1.00;;;;;;4830764;29;50679;-81
2024/01/10 13:15:28;;;;;;;11.20;7.50;;;0.40;1.00;;;;;;4812433;29;36789;-80
2024/01/10 13:18:28;;;;;;;13.70;7.10;;;0.30;1.00;;;;;;4805145;29;39416;-80
2024/01/10 13:22:15;;;;;;;14.13;7.13;;;0.40;1.00;;;;;;4828320;29;48933;-80
2024/01/10 14:10:25;;;;;;;13.33;7.60;;;0.80;99.90;;;;;;5089758;23;20134;-80
2024/01/10 14:12:56;;;;;;;12.43;6.80;;;0.80;98.50;;;;;;4834348;29;48083;-80
2024/01/10 14:18:59;;;;;;;15.30;6.83;;;0.90;48.50;;;;;;4796621;29;50676;-80
2024/01/10 14:25:48;;;;;;;13.80;6.77;;;0.90;4.50;;;;;;4805876;29;38299;-80
2024/01/10 14:28:55;;;;;;;13.23;6.43;;;0.90;1.00;;;;;;4776337;29;40354;-79
2024/01/10 14:31:50;;;;;;;;;;;0.90;1.00;;;;;;4794584;29;39887;-80
2024/01/10 14:37:36;;;;;;;13.87;6.63;;;0.90;1.00;;;;;;5217148;23;20050;-81
2024/01/10 14:40:48;;;;;;;12.03;6.90;;;0.90;1.00;;;;;;4764317;29;49406;-80
2024/01/10 14:44:00;;;;;;;12.77;6.47;;;0.80;1.00;;;;;;4807209;29;39584;-81
2024/01/10 15:13:56;;;;;;;16.20;7.47;;;0.60;1.00;;;;;;4817508;29;39779;-81
2024/01/10 15:16:56;;;;;;;14.60;7.00;;;0.50;1.00;;;;;;4810090;29;39629;-80
2024/01/10 15:59:35;;;;;;;14.10;7.30;;;0.20;1.00;;;;;;5346414;23;20060;-80
2024/01/10 16:04:43;;;;;;;14.90;7.67;;;0.10;1.00;;;;;;5522133;23;20034;-79
2024/01/10 16:07:43;;;;;;;13.23;7.18;;;0.10;1.00;;;;;;4814849;29;41945;-78
2024/01/10 16:10:34;;;;;;;14.87;7.50;;;0.10;1.00;;;;;;4850310;29;39834;-80
2024/01/10 16:26:17;;;;;;;15.23;8.10;;;-0.20;41.10;;;;;;5661543;23;20046;-80
2024/01/10 16:50:30;;;;;;;15.77;8.17;;;-0.50;99.90;;;;;;5512909;23;20062;-80
2024/01/10 16:53:28;;;;;;;14.00;8.43;;;-0.50;99.90;;;;;;4841866;29;39826;-80
2024/01/10 17:07:03;;;;;;;19.33;9.33;;;-0.70;1.00;;;;;;1346889;27;20129;-80
2024/01/10 17:09:48;;;;;;;16.80;8.30;;;-0.70;1.00;;;;;;4803814;29;49181;-78
2024/01/10 17:12:29;;;;;;;20.43;9.73;;;-0.70;1.00;;;;;;4818022;29;39692;-80
2024/01/10 17:15:26;;;;;;;15.97;9.13;;;-0.70;1.00;;;;;;4807712;29;37798;-79
2024/01/10 17:20:49;;;;;;;18.00;8.47;;;-0.60;1.00;;;;;;5555195;23;20053;-81
2024/01/10 17:23:19;;;;;;;21.43;9.17;;;-0.60;1.00;;;;;;5030403;23;39975;-80
2024/01/10 17:28:36;;;;;;;17.80;9.37;;;-0.60;1.00;;;;;;5049611;23;20041;-79
2024/01/10 17:31:40;;;;;;;16.60;8.13;;;-0.60;1.00;;;;;;4889726;29;37766;-81
2024/01/10 17:39:20;;;;;;;20.40;10.60;;;-0.60;1.00;;;;;;5747184;24;19939;-80
2024/01/10 17:50:18;;;;;;;19.70;9.67;;;-0.70;1.00;;;;;;4914467;24;20042;-81
2024/01/10 18:00:59;;;;;;;18.80;9.03;;;-0.80;1.00;;;;;;5385961;23;20048;-80
2024/01/10 18:12:25;;;;;;;20.27;9.90;;;-0.80;1.00;;;;;;4936142;23;20061;-80
2024/01/10 18:15:32;;;;;;;16.43;8.53;;;-0.90;1.00;;;;;;4815879;29;50211;-80
2024/01/10 18:18:49;;;;;;;19.10;9.00;;;-1.00;1.00;;;;;;4819140;29;50038;-80
2024/01/10 18:24:35;;;;;;;16.47;9.23;;;-1.00;1.00;;;;;;5451466;23;19912;-80
2024/01/10 18:46:16;;;;;;;18.43;9.70;;;-1.10;1.00;;;;;;5499711;23;19913;-81
2024/01/10 18:49:00;;;;;;;19.90;9.77;;;-1.10;1.00;;;;;;5263864;23;49821;-80
2024/01/10 18:51:26;;;;;;;23.37;10.27;;;-1.20;1.00;;;;;;4849677;29;38643;-80
2024/01/10 18:53:52;;;;;;;21.17;10.50;;;-1.20;1.00;;;;;;4988291;23;38273;-80
2024/01/10 18:59:39;;;;;;;16.57;9.47;;;-1.20;1.00;;;;;;5229249;23;49053;-80
2024/01/10 19:02:22;;;;;;;17.37;9.30;;;-1.20;1.00;;;;;;4822349;29;36960;-80
2024/01/10 19:05:16;;;;;;;16.37;9.00;;;-1.30;1.00;;;;;;4800804;29;38648;-81
2024/01/10 19:07:44;;;;;;;14.60;8.87;;;-1.30;1.00;;;;;;4809610;29;49051;-79
2024/01/10 19:10:19;;;;;;;20.80;9.10;;;-1.30;1.00;;;;;;4838321;29;37833;-78
2024/01/10 19:12:48;;;;;;;14.90;9.00;;;-1.30;1.00;;;;;;4805561;29;39115;-80
2024/01/10 19:15:38;;;;;;;18.33;9.30;;;-1.30;1.00;;;;;;4797020;29;38570;-80
2024/01/10 19:18:12;;;;;;;19.03;9.43;;;-1.20;1.00;;;;;;4808138;29;38304;-79
2024/01/10 19:20:41;;;;;;;16.70;9.17;;;-1.20;1.00;;;;;;4804868;29;36470;-80
2024/01/10 19:23:33;;;;;;;18.83;9.80;;;-1.30;1.00;;;;;;4763729;29;40543;-79
2024/01/10 19:26:29;;;;;;;15.05;8.18;;;-1.40;1.00;;;;;;4807095;29;37803;-79
2024/01/10 19:29:38;;;;;;;16.60;8.67;;;-1.40;10.50;;;;;;4792937;29;49920;-80
2024/01/10 19:32:14;;;;;;;14.43;8.03;;;-1.40;36.30;;;;;;4807506;29;39609;-79
2024/01/10 19:34:47;;;;;;;14.50;8.77;;;-1.40;64.10;;;;;;4798468;29;37709;-79
2024/01/10 19:37:13;;;;;;;;;;;-1.40;99.90;;;;;;4792033;29;37852;-80
2024/01/10 19:39:43;;;;;;;18.57;9.30;;;-1.50;99.90;;;;;;4827857;29;36789;-81
2024/01/10 19:42:19;;;;;;;17.57;9.23;;;-1.50;99.90;;;;;;4803123;29;36312;-81
2024/01/10 19:44:57;;;;;;;17.37;8.73;;;-1.50;99.90;;;;;;4816297;29;40161;-80
2024/01/10 19:47:28;;;;;;;16.53;8.63;;;-1.60;99.90;;;;;;4808077;29;38450;-80
2024/01/10 19:49:55;;;;;;;14.07;8.03;;;-1.60;99.90;;;;;;4804558;29;37710;-79
2024/01/10 19:52:24;;;;;;;17.87;8.83;;;-1.60;99.90;;;;;;4820526;29;37535;-80
2024/01/10 19:55:00;;;;;;;18.50;8.80;;;-1.50;99.90;;;;;;4842159;29;39293;-80
2024/01/10 19:57:35;;;;;;;16.40;8.73;;;-1.50;99.90;;;;;;4817843;29;39087;-81
2024/01/10 20:00:14;;;;;;;16.60;8.50;;;-1.50;99.90;;;;;;4834619;29;39187;-80
2024/01/10 20:02:51;;;;;;;17.83;8.50;;;-1.40;99.90;;;;;;4836862;29;38461;-81
2024/01/10 20:05:35;;;;;;;15.83;8.37;;;-1.50;99.90;;;;;;4806020;29;40311;-80
2024/01/10 20:08:02;;;;;;;16.87;8.80;;;-1.50;99.90;;;;;;4831795;29;39969;-80
2024/01/10 20:10:30;;;;;;;18.60;9.37;;;-1.60;99.90;;;;;;4818303;29;48548;-80
2024/01/10 20:12:58;;;;;;;14.90;8.40;;;-1.60;99.90;;;;;;4833228;29;36868;-81
2024/01/10 20:15:28;;;;;;;15.17;8.70;;;-1.60;99.90;;;;;;4804924;29;39112;-80
2024/01/10 20:17:55;;;;;;;16.33;8.17;;;-1.60;99.90;;;;;;4819831;29;40071;-80
2024/01/10 20:52:06;;;;;;;17.53;8.70;;;-1.70;1.00;;;;;;5415367;23;20038;-82
2024/01/10 20:55:02;;;;;;;18.20;9.57;;;-1.70;1.00;;;;;;5069445;23;38119;-81
2024/01/10 20:58:28;;;;;;;17.77;9.97;;;-1.80;1.00;;;;;;4817552;29;20042;-82
2024/01/10 21:01:02;;;;;;;18.60;8.70;;;-1.80;1.00;;;;;;4766309;29;48990;-82
2024/01/10 21:06:12;;;;;;;17.33;9.47;;;-1.90;1.00;;;;;;5701162;23;20050;-81
2024/01/10 21:13:54;;;;;;;19.73;9.20;;;-1.90;1.00;;;;;;5147830;23;19913;-83
2024/01/10 21:16:32;;;;;;;19.67;9.13;;;-1.90;1.00;;;;;;4876641;29;36935;-81
2024/01/10 21:45:22;;;;;;;16.07;9.30;;;-2.10;99.90;;;;;;5818634;23;40252;-82
2024/01/10 21:56:01;;;;;;;21.20;10.07;;;-2.10;1.00;;;;;;4746929;23;20267;-82
2024/01/10 22:09:34;;;;;;;15.23;8.20;;;-2.20;1.00;;;;;;4651770;23;20058;-84
